Time,TemperatureF,DewpointF,PressureIn,WindDirection,WindDirectionDegrees,WindSpeedMPH,WindSpeedGustMPH,Humidity,HourlyPrecipIn,Conditions,Clouds,dailyrainin,SoftwareType,DateUTC
2013-07-27 00:05:00,64.1,59.8,29.98,South,180,1.0,1.0,86,0.00,,,0.00,Wunderground v.1.15,2013-07-27 04:05:00,
2013-07-27 00:15:00,64.1,59.8,29.98,NNE,14,1.0,1.0,86,0.00,,,0.00,Wunderground v.1.15,2013-07-27 04:15:00,
2013-07-27 00:20:00,64.1,59.8,29.97,NNE,17,0.0,0.0,86,0.00,,,0.00,Wunderground v.1.15,2013-07-27 04:20:00,
2013-07-27 00:25:00,64.1,59.8,29.98,WNW,292,0.0,1.0,86,0.00,,,0.00,Wunderground v.1.15,2013-07-27 04:25:00,
2013-07-27 00:30:00,64.1,59.8,29.98,WNW,298,0.0,0.0,86,0.00,,,0.00,Wunderground v.1.15,2013-07-27 04:30:00,
2013-07-27 00:35:00,64.1,59.8,29.98,NNW,327,0.0,2.0,86,0.00,,,0.00,Wunderground v.1.15,2013-07-27 04:35:00,
2013-07-27 00:45:00,64.1,59.8,29.97,NNW,328,0.0,1.0,86,0.00,,,0.00,Wunderground v.1.15,2013-07-27 04:45:00,
2013-07-27 00:50:00,63.9,60.0,29.97,WNW,303,0.0,0.0,87,0.00,,,0.00,Wunderground v.1.15,2013-07-27 04:50:00,
2013-07-27 01:00:00,63.6,60.0,29.97,NW,309,0.0,1.0,88,0.00,,,0.00,Wunderground v.1.15,2013-07-27 05:00:00,
2013-07-27 01:05:00,63.5,59.6,29.97,NW,314,0.0,1.0,87,0.00,,,0.00,Wunderground v.1.15,2013-07-27 05:05:00,
2013-07-27 01:15:00,63.3,59.7,29.97,ENE,78,0.0,0.0,88,0.00,,,0.00,Wunderground v.1.15,2013-07-27 05:15:00,
2013-07-27 01:20:00,63.3,59.7,29.97,South,181,0.0,6.0,88,0.00,,,0.00,Wunderground v.1.15,2013-07-27 05:20:00,
2013-07-27 01:30:00,63.1,59.5,29.97,WNW,292,1.0,1.0,88,0.00,,,0.00,Wunderground v.1.15,2013-07-27 05:30:00,
2013-07-27 01:35:00,63.0,59.7,29.97,WNW,292,0.0,1.0,89,0.00,,,0.00,Wunderground v.1.15,2013-07-27 05:35:00,
2013-07-27 01:45:00,62.8,59.5,29.97,South,184,0.0,0.0,89,0.00,,,0.00,Wunderground v.1.15,2013-07-27 05:45:00,
2013-07-27 01:50:00,62.7,59.4,29.97,South,184,0.0,0.0,89,0.00,,,0.00,Wunderground v.1.15,2013-07-27 05:50:00,
2013-07-27 02:00:00,62.6,59.6,29.97,South,186,0.0,0.0,90,0.00,,,0.00,Wunderground v.1.15,2013-07-27 06:00:00,
2013-07-27 02:05:00,62.6,59.6,29.97,South,186,0.0,0.0,90,0.00,,,0.00,Wunderground v.1.15,2013-07-27 06:05:00,
2013-07-27 02:15:00,62.4,59.4,29.97,South,187,0.0,0.0,90,0.00,,,0.00,Wunderground v.1.15,2013-07-27 06:15:00,
2013-07-27 02:20:00,62.2,59.2,29.97,South,187,0.0,0.0,90,0.00,,,0.00,Wunderground v.1.15,2013-07-27 06:20:00,
2013-07-27 02:25:00,62.0,59.0,29.97,South,187,0.0,0.0,90,0.00,,,0.00,Wunderground v.1.15,2013-07-27 06:25:00,
2013-07-27 02:35:00,61.7,58.7,29.97,South,187,0.0,0.0,90,0.00,,,0.00,Wunderground v.1.15,2013-07-27 06:35:00,
2013-07-27 02:45:00,61.7,59.0,29.97,South,186,0.0,1.0,91,0.00,,,0.00,Wunderground v.1.15,2013-07-27 06:45:00,
2013-07-27 02:50:00,61.8,59.1,29.97,WNW,302,0.0,0.0,91,0.00,,,0.00,Wunderground v.1.15,2013-07-27 06:50:00,
2013-07-27 03:00:00,61.9,58.9,29.97,NW,326,0.0,0.0,90,0.00,,,0.00,Wunderground v.1.15,2013-07-27 07:00:00,
2013-07-27 03:05:00,62.0,59.0,29.98,NW,308,0.0,0.0,90,0.00,,,0.00,Wunderground v.1.15,2013-07-27 07:05:00,
2013-07-27 03:15:00,61.8,58.8,29.98,SSE,153,0.0,0.0,90,0.00,,,0.00,Wunderground v.1.15,2013-07-27 07:15:00,
2013-07-27 03:20:00,61.6,58.6,29.98,SSE,153,0.0,0.0,90,0.00,,,0.00,Wunderground v.1.15,2013-07-27 07:20:00,
2013-07-27 03:30:00,61.1,58.5,29.98,SSE,153,0.0,0.0,91,0.00,,,0.00,Wunderground v.1.15,2013-07-27 07:30:00,
2013-07-27 03:35:00,61.0,58.4,29.97,WNW,288,0.0,0.0,91,0.00,,,0.00,Wunderground v.1.15,2013-07-27 07:35:00,
2013-07-27 03:45:00,60.9,58.6,29.97,WSW,254,0.0,0.0,92,0.00,,,0.00,Wunderground v.1.15,2013-07-27 07:45:00,
2013-07-27 03:50:00,60.7,58.4,29.97,WSW,254,0.0,0.0,92,0.00,,,0.00,Wunderground v.1.15,2013-07-27 07:50:00,
2013-07-27 04:00:00,60.1,57.8,29.97,SSW,205,0.0,0.0,92,0.00,,,0.00,Wunderground v.1.15,2013-07-27 08:00:00,
2013-07-27 04:05:00,59.9,57.9,29.97,SSW,205,0.0,0.0,93,0.00,,,0.00,Wunderground v.1.15,2013-07-27 08:05:00,
2013-07-27 04:15:00,59.6,57.6,29.97,SSW,205,0.0,0.0,93,0.00,,,0.00,Wunderground v.1.15,2013-07-27 08:15:00,
2013-07-27 04:20:00,59.3,57.3,29.97,SSW,205,0.0,0.0,93,0.00,,,0.00,Wunderground v.1.15,2013-07-27 08:20:00,
2013-07-27 04:30:00,58.7,57.0,29.98,SSW,205,0.0,2.0,94,0.00,,,0.00,Wunderground v.1.15,2013-07-27 08:30:00,
2013-07-27 04:35:00,58.6,57.2,29.98,SSW,205,0.0,2.0,95,0.00,,,0.00,Wunderground v.1.15,2013-07-27 08:35:00,
2013-07-27 04:45:00,58.5,57.1,29.98,SSW,205,0.0,0.0,95,0.00,,,0.00,Wunderground v.1.15,2013-07-27 08:45:00,
2013-07-27 04:55:00,58.2,56.8,29.98,SSW,205,0.0,0.0,95,0.00,,,0.00,Wunderground v.1.15,2013-07-27 08:55:00,
2013-07-27 05:00:00,58.4,57.0,29.98,SSW,205,0.0,0.0,95,0.00,,,0.00,Wunderground v.1.15,2013-07-27 09:00:00,
2013-07-27 05:05:00,58.6,57.2,29.99,SSE,155,0.0,0.0,95,0.00,,,0.00,Wunderground v.1.15,2013-07-27 09:05:00,
2013-07-27 05:15:00,59.4,57.7,29.99,West,278,0.0,0.0,94,0.00,,,0.00,Wunderground v.1.15,2013-07-27 09:15:00,
2013-07-27 05:25:00,59.9,57.9,29.99,West,279,0.0,0.0,93,0.00,,,0.00,Wunderground v.1.15,2013-07-27 09:25:00,
2013-07-27 05:30:00,60.0,57.7,30.00,NNE,28,0.0,0.0,92,0.00,,,0.00,Wunderground v.1.15,2013-07-27 09:30:00,
2013-07-27 05:40:00,60.0,57.7,30.00,NNE,28,0.0,0.0,92,0.00,,,0.00,Wunderground v.1.15,2013-07-27 09:40:00,
2013-07-27 05:45:00,59.6,57.3,30.00,NNE,28,0.0,0.0,92,0.00,,,0.00,Wunderground v.1.15,2013-07-27 09:45:00,
2013-07-27 05:50:00,59.3,57.0,30.00,NNE,28,0.0,0.0,92,0.00,,,0.00,Wunderground v.1.15,2013-07-27 09:50:00,
2013-07-27 06:00:00,59.8,57.2,30.00,NNE,16,1.0,1.0,91,0.00,,,0.00,Wunderground v.1.15,2013-07-27 10:00:00,
2013-07-27 06:05:00,59.7,57.4,30.00,NNE,16,0.0,1.0,92,0.00,,,0.00,Wunderground v.1.15,2013-07-27 10:05:00,
2013-07-27 06:15:00,59.0,56.7,30.00,NNE,15,0.0,0.0,92,0.00,,,0.00,Wunderground v.1.15,2013-07-27 10:15:00,
2013-07-27 06:25:00,58.9,56.9,30.00,NNE,16,0.0,0.0,93,0.00,,,0.00,Wunderground v.1.15,2013-07-27 10:25:00,
2013-07-27 06:30:00,58.9,57.2,30.01,NNE,33,0.0,0.0,94,0.00,,,0.00,Wunderground v.1.15,2013-07-27 10:30:00,
2013-07-27 06:40:00,59.0,57.3,30.01,NNE,33,0.0,0.0,94,0.00,,,0.00,Wunderground v.1.15,2013-07-27 10:40:00,
2013-07-27 06:45:00,59.0,57.3,30.01,NNE,33,0.0,0.0,94,0.00,,,0.00,Wunderground v.1.15,2013-07-27 10:45:00,
2013-07-27 06:55:00,59.3,57.6,30.01,SSE,153,0.0,0.0,94,0.00,,,0.00,Wunderground v.1.15,2013-07-27 10:55:00,
2013-07-27 07:00:00,59.6,57.9,30.02,SSE,153,0.0,1.0,94,0.00,,,0.00,Wunderground v.1.15,2013-07-27 11:00:00,
2013-07-27 07:05:00,59.9,57.9,30.02,SSE,153,0.0,1.0,93,0.00,,,0.00,Wunderground v.1.15,2013-07-27 11:05:00,
2013-07-27 07:15:00,60.3,58.3,30.01,SSE,153,0.0,0.0,93,0.00,,,0.00,Wunderground v.1.15,2013-07-27 11:15:00,
2013-07-27 07:25:00,60.7,58.7,30.02,SSE,148,0.0,0.0,93,0.00,,,0.00,Wunderground v.1.15,2013-07-27 11:25:00,
2013-07-27 07:30:00,61.1,59.1,30.02,SSE,148,0.0,0.0,93,0.00,,,0.00,Wunderground v.1.15,2013-07-27 11:30:00,
2013-07-27 07:40:00,62.5,59.2,30.02,NNE,31,0.0,0.0,89,0.00,,,0.00,Wunderground v.1.15,2013-07-27 11:40:00,
2013-07-27 07:45:00,63.4,59.1,30.02,NNE,27,0.0,0.0,86,0.00,,,0.00,Wunderground v.1.15,2013-07-27 11:45:00,
2013-07-27 07:55:00,64.8,59.5,30.02,West,281,0.0,1.0,83,0.00,,,0.00,Wunderground v.1.15,2013-07-27 11:55:00,
2013-07-27 08:00:00,65.4,59.4,30.02,NNW,340,0.0,1.0,81,0.00,,,0.00,Wunderground v.1.15,2013-07-27 12:00:00,
2013-07-27 08:05:00,65.9,59.6,30.02,North,355,0.0,1.0,80,0.00,,,0.00,Wunderground v.1.15,2013-07-27 12:05:00,
2013-07-27 08:15:00,66.8,60.1,30.02,North,355,0.0,0.0,79,0.00,,,0.00,Wunderground v.1.15,2013-07-27 12:15:00,
2013-07-27 08:20:00,67.2,60.8,30.02,NW,311,0.0,0.0,80,0.00,,,0.00,Wunderground v.1.15,2013-07-27 12:20:00,
2013-07-27 08:25:00,67.7,61.0,30.02,NW,323,0.0,0.0,79,0.00,,,0.00,Wunderground v.1.15,2013-07-27 12:25:00,
2013-07-27 08:30:00,68.1,60.6,30.02,West,271,0.0,0.0,77,0.00,,,0.00,Wunderground v.1.15,2013-07-27 12:30:00,
2013-07-27 08:40:00,68.7,62.3,30.02,SW,233,0.0,0.0,80,0.00,,,0.00,Wunderground v.1.15,2013-07-27 12:40:00,
2013-07-27 08:45:00,69.0,61.5,30.02,WNW,302,0.0,0.0,77,0.00,,,0.00,Wunderground v.1.15,2013-07-27 12:45:00,
2013-07-27 08:55:00,69.8,62.3,30.02,NW,311,0.0,1.0,77,0.00,,,0.00,Wunderground v.1.15,2013-07-27 12:55:00,
2013-07-27 09:00:00,70.0,61.3,30.02,North,355,1.0,2.0,74,0.00,,,0.00,Wunderground v.1.15,2013-07-27 13:00:00,
2013-07-27 09:05:00,70.0,61.7,30.02,NNW,345,1.0,2.0,75,0.00,,,0.00,Wunderground v.1.15,2013-07-27 13:05:00,
2013-07-27 09:15:00,70.9,62.6,30.01,SSW,196,1.0,2.0,75,0.00,,,0.00,Wunderground v.1.15,2013-07-27 13:15:00,
2013-07-27 09:25:00,71.7,61.0,30.02,NNW,346,0.0,3.0,69,0.00,,,0.00,Wunderground v.1.15,2013-07-27 13:25:00,
2013-07-27 09:30:00,71.9,60.8,30.01,NNW,346,0.0,0.0,68,0.00,,,0.00,Wunderground v.1.15,2013-07-27 13:30:00,
2013-07-27 09:35:00,72.2,61.0,30.02,North,360,0.0,0.0,68,0.00,,,0.00,Wunderground v.1.15,2013-07-27 13:35:00,
2013-07-27 09:45:00,72.7,60.3,30.02,WNW,296,1.0,1.0,65,0.00,,,0.00,Wunderground v.1.15,2013-07-27 13:45:00,
2013-07-27 09:50:00,73.1,59.3,30.02,NNW,331,1.0,2.0,62,0.00,,,0.00,Wunderground v.1.15,2013-07-27 13:50:00,
2013-07-27 10:00:00,73.7,59.4,30.02,West,260,1.0,2.0,61,0.00,,,0.00,Wunderground v.1.15,2013-07-27 14:00:00,
2013-07-27 10:05:00,74.0,57.3,30.02,South,172,1.0,2.0,56,0.00,,,0.00,Wunderground v.1.15,2013-07-27 14:05:00,
2013-07-27 10:15:00,74.7,58.0,30.02,WNW,290,0.0,2.0,56,0.00,,,0.00,Wunderground v.1.15,2013-07-27 14:15:00,
2013-07-27 10:20:00,74.9,58.6,30.02,WNW,301,0.0,0.0,57,0.00,,,0.00,Wunderground v.1.15,2013-07-27 14:20:00,
2013-07-27 10:30:00,75.4,61.5,30.02,WNW,296,1.0,2.0,62,0.00,,,0.00,Wunderground v.1.15,2013-07-27 14:30:00,
2013-07-27 10:35:00,75.4,62.8,30.02,South,182,1.0,2.0,65,0.00,,,0.00,Wunderground v.1.15,2013-07-27 14:35:00,
2013-07-27 10:45:00,75.2,62.2,30.01,SSW,195,2.0,2.0,64,0.00,,,0.00,Wunderground v.1.15,2013-07-27 14:45:00,
2013-07-27 10:50:00,75.5,63.8,30.01,South,175,1.0,2.0,67,0.00,,,0.00,Wunderground v.1.15,2013-07-27 14:50:00,
2013-07-27 11:00:00,75.6,62.6,30.01,SSE,161,1.0,4.0,64,0.00,,,0.00,Wunderground v.1.15,2013-07-27 15:00:00,
2013-07-27 11:05:00,75.6,63.4,30.01,South,191,2.0,4.0,66,0.00,,,0.00,Wunderground v.1.15,2013-07-27 15:05:00,
2013-07-27 11:15:00,75.8,59.5,30.01,SSW,203,2.0,2.0,57,0.00,,,0.00,Wunderground v.1.15,2013-07-27 15:15:00,
2013-07-27 11:20:00,76.2,59.9,30.01,WNW,287,1.0,1.0,57,0.00,,,0.00,Wunderground v.1.15,2013-07-27 15:20:00,
2013-07-27 11:30:00,76.9,58.5,30.02,NNE,19,1.0,1.0,53,0.00,,,0.00,Wunderground v.1.15,2013-07-27 15:30:00,
2013-07-27 11:35:00,77.0,63.0,30.02,NNW,339,2.0,2.0,62,0.00,,,0.00,Wunderground v.1.15,2013-07-27 15:35:00,
2013-07-27 11:45:00,77.6,65.3,30.02,WNW,300,1.0,3.0,66,0.00,,,0.00,Wunderground v.1.15,2013-07-27 15:45:00,
2013-07-27 11:50:00,78.0,59.5,30.01,WNW,295,1.0,1.0,53,0.00,,,0.00,Wunderground v.1.15,2013-07-27 15:50:00,
2013-07-27 12:00:00,78.0,61.5,30.01,SW,218,1.0,1.0,57,0.00,,,0.00,Wunderground v.1.15,2013-07-27 16:00:00,
2013-07-27 12:05:00,77.9,61.9,30.01,SSW,205,2.0,2.0,58,0.00,,,0.00,Wunderground v.1.15,2013-07-27 16:05:00,
2013-07-27 12:15:00,78.0,62.0,30.00,WNW,296,1.0,4.0,58,0.00,,,0.00,Wunderground v.1.15,2013-07-27 16:15:00,
2013-07-27 12:20:00,78.3,61.8,30.00,NE,37,1.0,1.0,57,0.00,,,0.00,Wunderground v.1.15,2013-07-27 16:20:00,
2013-07-27 12:25:00,78.3,60.8,30.00,SW,215,1.0,3.0,55,0.00,,,0.00,Wunderground v.1.15,2013-07-27 16:25:00,
2013-07-27 12:35:00,78.7,63.2,30.00,SSW,193,1.0,2.0,59,0.00,,,0.00,Wunderground v.1.15,2013-07-27 16:35:00,
2013-07-27 12:45:00,78.7,62.7,30.00,South,171,1.0,1.0,58,0.00,,,0.00,Wunderground v.1.15,2013-07-27 16:45:00,
2013-07-27 12:50:00,78.6,62.6,30.00,SSE,153,2.0,2.0,58,0.00,,,0.00,Wunderground v.1.15,2013-07-27 16:50:00,
2013-07-27 12:55:00,78.4,62.9,30.00,SSW,205,2.0,4.0,59,0.00,,,0.00,Wunderground v.1.15,2013-07-27 16:55:00,
2013-07-27 13:05:00,78.4,61.4,29.99,South,191,2.0,4.0,56,0.00,,,0.00,Wunderground v.1.15,2013-07-27 17:05:00,
2013-07-27 13:15:00,78.6,61.6,29.99,SSW,198,2.0,2.0,56,0.00,,,0.00,Wunderground v.1.15,2013-07-27 17:15:00,
2013-07-27 13:20:00,78.7,61.7,29.99,SSW,198,1.0,1.0,56,0.00,,,0.00,Wunderground v.1.15,2013-07-27 17:20:00,
2013-07-27 13:30:00,79.2,62.1,29.99,South,177,1.0,2.0,56,0.00,,,0.00,Wunderground v.1.15,2013-07-27 17:30:00,
2013-07-27 13:35:00,79.3,60.1,29.99,South,184,1.0,2.0,52,0.00,,,0.00,Wunderground v.1.15,2013-07-27 17:35:00,
2013-07-27 13:40:00,79.2,61.6,29.99,South,171,2.0,2.0,55,0.00,,,0.00,Wunderground v.1.15,2013-07-27 17:40:00,
2013-07-27 13:50:00,79.1,60.5,29.99,SSW,213,2.0,4.0,53,0.00,,,0.00,Wunderground v.1.15,2013-07-27 17:50:00,
2013-07-27 13:55:00,78.9,59.8,29.98,South,176,3.0,4.0,52,0.00,,,0.00,Wunderground v.1.15,2013-07-27 17:55:00,
2013-07-27 14:05:00,79.4,59.7,29.98,West,263,1.0,3.0,51,0.00,,,0.00,Wunderground v.1.15,2013-07-27 18:05:00,
2013-07-27 14:15:00,80.3,61.6,29.98,WNW,288,1.0,1.0,53,0.00,,,0.00,Wunderground v.1.15,2013-07-27 18:15:00,
2013-07-27 14:20:00,80.2,58.7,29.98,NNW,343,1.0,1.0,48,0.00,,,0.00,Wunderground v.1.15,2013-07-27 18:20:00,
2013-07-27 14:30:00,80.5,60.1,29.98,SSW,202,1.0,3.0,50,0.00,,,0.00,Wunderground v.1.15,2013-07-27 18:30:00,
2013-07-27 14:35:00,80.5,59.6,29.99,South,169,1.0,3.0,49,0.00,,,0.00,Wunderground v.1.15,2013-07-27 18:35:00,
2013-07-27 14:45:00,80.5,59.6,29.99,SSW,205,1.0,2.0,49,0.00,,,0.00,Wunderground v.1.15,2013-07-27 18:45:00,
2013-07-27 14:50:00,80.8,58.7,29.99,WNW,286,1.0,1.0,47,0.00,,,0.00,Wunderground v.1.15,2013-07-27 18:50:00,
2013-07-27 14:55:00,81.0,60.0,29.99,SSW,192,1.0,1.0,49,0.00,,,0.00,Wunderground v.1.15,2013-07-27 18:55:00,
2013-07-27 15:05:00,81.0,60.6,29.98,South,173,1.0,3.0,50,0.00,,,0.00,Wunderground v.1.15,2013-07-27 19:05:00,
2013-07-27 15:15:00,80.6,62.4,29.98,NNE,19,2.0,2.0,54,0.00,,,0.00,Wunderground v.1.15,2013-07-27 19:15:00,
2013-07-27 15:20:00,81.0,61.2,29.98,WNW,283,0.0,0.0,51,0.00,,,0.00,Wunderground v.1.15,2013-07-27 19:20:00,
2013-07-27 15:30:00,82.0,59.8,29.98,NNW,334,0.0,0.0,47,0.00,,,0.00,Wunderground v.1.15,2013-07-27 19:30:00,
2013-07-27 15:35:00,82.0,62.6,29.98,NNW,338,0.0,0.0,52,0.00,,,0.00,Wunderground v.1.15,2013-07-27 19:35:00,
2013-07-27 15:45:00,81.8,60.8,29.97,SSW,206,1.0,1.0,49,0.00,,,0.00,Wunderground v.1.15,2013-07-27 19:45:00,
2013-07-27 15:50:00,82.0,61.5,29.97,SSW,195,1.0,2.0,50,0.00,,,0.00,Wunderground v.1.15,2013-07-27 19:50:00,
2013-07-27 16:00:00,81.2,59.1,29.97,South,190,1.0,3.0,47,0.00,,,0.00,Wunderground v.1.15,2013-07-27 20:00:00,
2013-07-27 16:05:00,80.7,60.9,29.97,SSE,157,1.0,3.0,51,0.00,,,0.00,Wunderground v.1.15,2013-07-27 20:05:00,
2013-07-27 16:15:00,80.6,62.4,29.97,South,172,1.0,2.0,54,0.00,,,0.00,Wunderground v.1.15,2013-07-27 20:15:00,
2013-07-27 16:20:00,81.1,60.7,29.97,South,179,1.0,1.0,50,0.00,,,0.00,Wunderground v.1.15,2013-07-27 20:20:00,
2013-07-27 16:30:00,81.1,59.0,29.97,SSW,200,1.0,3.0,47,0.00,,,0.00,Wunderground v.1.15,2013-07-27 20:30:00,
2013-07-27 16:35:00,81.1,58.4,29.97,South,184,1.0,3.0,46,0.00,,,0.00,Wunderground v.1.15,2013-07-27 20:35:00,
2013-07-27 16:45:00,80.6,60.2,29.97,South,180,1.0,5.0,50,0.00,,,0.00,Wunderground v.1.15,2013-07-27 20:45:00,
2013-07-27 16:50:00,80.0,59.7,29.96,South,175,1.0,1.0,50,0.00,,,0.00,Wunderground v.1.15,2013-07-27 20:50:00,
2013-07-27 16:55:00,80.0,58.5,29.96,South,175,0.0,1.0,48,0.00,,,0.00,Wunderground v.1.15,2013-07-27 20:55:00,
2013-07-27 17:05:00,80.5,57.2,29.96,South,175,0.0,0.0,45,0.00,,,0.00,Wunderground v.1.15,2013-07-27 21:05:00,
2013-07-27 17:15:00,80.6,60.8,29.95,South,169,0.0,2.0,51,0.00,,,0.00,Wunderground v.1.15,2013-07-27 21:15:00,
2013-07-27 17:20:00,80.6,62.9,29.96,SSE,147,1.0,2.0,55,0.00,,,0.00,Wunderground v.1.15,2013-07-27 21:20:00,
2013-07-27 17:25:00,80.2,60.4,29.96,SW,221,1.0,2.0,51,0.00,,,0.00,Wunderground v.1.15,2013-07-27 21:25:00,
2013-07-27 17:35:00,78.9,62.4,29.95,South,169,2.0,2.0,57,0.00,,,0.00,Wunderground v.1.15,2013-07-27 21:35:00,
2013-07-27 17:45:00,78.7,62.2,29.95,SSE,155,0.0,1.0,57,0.00,,,0.00,Wunderground v.1.15,2013-07-27 21:45:00,
2013-07-27 17:50:00,78.7,63.2,29.95,SSE,155,0.0,0.0,59,0.00,,,0.00,Wunderground v.1.15,2013-07-27 21:50:00,
2013-07-27 18:00:00,78.5,63.0,29.95,South,178,0.0,0.0,59,0.00,,,0.00,Wunderground v.1.15,2013-07-27 22:00:00,
2013-07-27 18:05:00,78.1,64.5,29.95,South,178,0.0,0.0,63,0.00,,,0.00,Wunderground v.1.15,2013-07-27 22:05:00,
2013-07-27 18:15:00,77.2,62.7,29.95,South,182,0.0,0.0,61,0.00,,,0.00,Wunderground v.1.15,2013-07-27 22:15:00,
2013-07-27 18:20:00,76.8,63.2,29.95,South,182,0.0,0.0,63,0.00,,,0.00,Wunderground v.1.15,2013-07-27 22:20:00,
2013-07-27 18:30:00,76.2,63.1,29.95,South,182,0.0,0.0,64,0.00,,,0.00,Wunderground v.1.15,2013-07-27 22:30:00,
2013-07-27 18:35:00,76.1,63.0,29.95,South,182,0.0,0.0,64,0.00,,,0.00,Wunderground v.1.15,2013-07-27 22:35:00,
2013-07-27 18:40:00,76.3,67.0,29.95,South,182,0.0,0.0,73,0.00,,,0.00,Wunderground v.1.15,2013-07-27 22:40:00,
2013-07-27 18:50:00,76.2,66.1,29.95,South,182,0.0,0.0,71,0.00,,,0.00,Wunderground v.1.15,2013-07-27 22:50:00,
2013-07-27 19:00:00,75.7,68.0,29.95,South,182,0.0,0.0,77,0.00,,,0.00,Wunderground v.1.15,2013-07-27 23:00:00,
2013-07-27 19:05:00,75.2,67.9,29.95,South,182,0.0,0.0,78,0.00,,,0.00,Wunderground v.1.15,2013-07-27 23:05:00,
2013-07-27 19:15:00,74.3,67.7,29.95,South,182,0.0,0.0,80,0.00,,,0.00,Wunderground v.1.15,2013-07-27 23:15:00,
2013-07-27 19:20:00,73.9,68.1,29.95,South,182,0.0,0.0,82,0.00,,,0.00,Wunderground v.1.15,2013-07-27 23:20:00,
2013-07-27 19:30:00,73.2,67.7,29.95,South,182,0.0,0.0,83,0.00,,,0.00,Wunderground v.1.15,2013-07-27 23:30:00,
2013-07-27 19:35:00,72.8,67.3,29.95,South,182,0.0,0.0,83,0.00,,,0.00,Wunderground v.1.15,2013-07-27 23:35:00,
2013-07-27 19:45:00,71.9,67.1,29.95,South,182,0.0,0.0,85,0.00,,,0.00,Wunderground v.1.15,2013-07-27 23:45:00,
2013-07-27 19:50:00,71.5,67.1,29.95,South,182,0.0,0.0,86,0.00,,,0.00,Wunderground v.1.15,2013-07-27 23:50:00,
2013-07-27 20:00:00,70.6,66.5,29.95,South,182,0.0,0.0,87,0.00,,,0.00,Wunderground v.1.15,2013-07-28 00:00:00,
2013-07-27 20:05:00,70.1,65.7,29.95,South,182,0.0,0.0,86,0.00,,,0.00,Wunderground v.1.15,2013-07-28 00:05:00,
2013-07-27 20:15:00,69.1,65.4,29.96,South,182,0.0,0.0,88,0.00,,,0.00,Wunderground v.1.15,2013-07-28 00:15:00,
2013-07-27 20:20:00,68.7,65.0,29.96,South,182,0.0,0.0,88,0.00,,,0.00,Wunderground v.1.15,2013-07-28 00:20:00,
2013-07-27 20:25:00,68.4,64.7,29.96,South,182,0.0,0.0,88,0.00,,,0.00,Wunderground v.1.15,2013-07-28 00:25:00,
2013-07-27 20:35:00,67.9,64.9,29.97,South,182,0.0,0.0,90,0.00,,,0.00,Wunderground v.1.15,2013-07-28 00:35:00,
2013-07-27 20:40:00,67.6,64.2,29.97,South,182,0.0,0.0,89,0.00,,,0.00,Wunderground v.1.15,2013-07-28 00:40:00,
2013-07-27 20:50:00,67.2,64.5,29.97,South,182,0.0,0.0,91,0.00,,,0.00,Wunderground v.1.15,2013-07-28 00:50:00,
2013-07-27 20:55:00,66.9,64.2,29.97,South,182,0.0,0.0,91,0.00,,,0.00,Wunderground v.1.15,2013-07-28 00:55:00,
2013-07-27 21:05:00,66.3,63.9,29.97,South,182,0.0,0.0,92,0.00,,,0.00,Wunderground v.1.15,2013-07-28 01:05:00,
2013-07-27 21:15:00,65.9,63.8,29.97,South,182,0.0,0.0,93,0.00,,,0.00,Wunderground v.1.15,2013-07-28 01:15:00,
2013-07-27 21:20:00,65.6,63.5,29.97,South,182,0.0,0.0,93,0.00,,,0.00,Wunderground v.1.15,2013-07-28 01:20:00,
2013-07-27 21:30:00,65.2,63.1,29.98,South,182,0.0,0.0,93,0.00,,,0.00,Wunderground v.1.15,2013-07-28 01:30:00,
2013-07-27 21:35:00,65.0,63.2,29.98,South,182,0.0,0.0,94,0.00,,,0.00,Wunderground v.1.15,2013-07-28 01:35:00,
2013-07-27 21:40:00,64.8,63.0,29.98,South,182,0.0,0.0,94,0.00,,,0.00,Wunderground v.1.15,2013-07-28 01:40:00,
2013-07-27 21:50:00,64.4,62.6,29.98,South,182,0.0,0.0,94,0.00,,,0.00,Wunderground v.1.15,2013-07-28 01:50:00,
2013-07-27 21:55:00,64.2,62.4,29.98,South,182,0.0,1.0,94,0.00,,,0.00,Wunderground v.1.15,2013-07-28 01:55:00,
2013-07-27 22:05:00,63.6,62.1,29.98,South,182,0.0,0.0,95,0.00,,,0.00,Wunderground v.1.15,2013-07-28 02:05:00,
2013-07-27 22:15:00,63.5,62.0,29.98,South,182,0.0,0.0,95,0.00,,,0.00,Wunderground v.1.15,2013-07-28 02:15:00,
2013-07-27 22:20:00,63.3,61.8,29.97,South,182,0.0,0.0,95,0.00,,,0.00,Wunderground v.1.15,2013-07-28 02:20:00,
2013-07-27 22:30:00,63.0,61.5,29.98,South,182,0.0,0.0,95,0.00,,,0.00,Wunderground v.1.15,2013-07-28 02:30:00,
2013-07-27 22:35:00,62.8,61.3,29.98,South,182,0.0,0.0,95,0.00,,,0.00,Wunderground v.1.15,2013-07-28 02:35:00,
2013-07-27 22:45:00,62.6,61.1,29.98,South,182,0.0,0.0,95,0.00,,,0.00,Wunderground v.1.15,2013-07-28 02:45:00,
2013-07-27 22:55:00,62.2,60.8,29.98,South,182,0.0,0.0,95,0.00,,,0.00,Wunderground v.1.15,2013-07-28 02:55:00,
2013-07-27 23:05:00,62.0,60.6,29.98,South,182,0.0,0.0,95,0.00,,,0.00,Wunderground v.1.15,2013-07-28 03:05:00,
2013-07-27 23:15:00,61.7,60.5,29.98,South,182,0.0,0.0,96,0.00,,,0.00,Wunderground v.1.15,2013-07-28 03:15:00,
2013-07-27 23:25:00,61.4,60.2,29.98,South,182,0.0,0.0,96,0.00,,,0.00,Wunderground v.1.15,2013-07-28 03:25:00,
2013-07-27 23:35:00,61.1,60.0,29.98,South,182,0.0,0.0,96,0.00,,,0.00,Wunderground v.1.15,2013-07-28 03:35:00,
2013-07-27 23:40:00,61.1,60.0,29.98,South,182,0.0,0.0,96,0.00,,,0.00,Wunderground v.1.15,2013-07-28 03:40:00,
2013-07-27 23:50:00,61.1,60.0,29.98,South,182,0.0,0.0,96,0.00,,,0.00,Wunderground v.1.15,2013-07-28 03:50:00,
2013-07-27 23:55:00,61.1,60.0,29.98,South,182,0.0,0.0,96,0.00,,,0.00,Wunderground v.1.15,2013-07-28 03:55:00,